createdAt,value
2019-02-21T00:00:50.729Z,102965.11
2019-02-21T00:03:53.934Z,102967.81
2019-02-21T00:06:57.155Z,102965.90
2019-02-21T00:10:00.513Z,102972.26
2019-02-21T00:13:03.522Z,102968.19
2019-02-21T00:16:07.648Z,102973.69
2019-02-21T00:19:10.836Z,102972.00
2019-02-21T00:22:14.056Z,102980.09
2019-02-21T00:25:17.308Z,102980.45
2019-02-21T00:28:20.445Z,102980.75
2019-02-21T00:31:23.632Z,102982.80
2019-02-21T00:34:26.819Z,102979.61
2019-02-21T00:37:29.999Z,102985.86
2019-02-21T00:40:33.190Z,102987.69
2019-02-21T00:43:36.301Z,102985.66
2019-02-21T00:46:40.291Z,102994.57
2019-02-21T00:49:43.497Z,102994.92
2019-02-21T00:52:46.704Z,102994.81
2019-02-21T00:55:49.903Z,102991.94
2019-02-21T00:58:53.124Z,102990.57
2019-02-21T01:01:56.425Z,102993.39
2019-02-21T01:04:59.590Z,102996.27
2019-02-21T01:08:02.783Z,102996.06
2019-02-21T01:11:05.980Z,103003.93
2019-02-21T01:14:09.155Z,103002.03
2019-02-21T01:17:12.355Z,103007.14
2019-02-21T01:20:15.640Z,103012.54
2019-02-21T01:23:19.439Z,103015.33
2019-02-21T01:26:22.556Z,103009.31
2019-02-21T01:29:25.744Z,103008.61
2019-02-21T01:32:28.944Z,103009.51
2019-02-21T01:35:32.119Z,103009.69
2019-02-21T01:38:35.235Z,103003.61
2019-02-21T01:41:38.425Z,103002.81
2019-02-21T01:44:41.607Z,103005.59
2019-02-21T01:47:44.830Z,103000.59
2019-02-21T01:50:47.987Z,102999.06
2019-02-21T01:53:51.099Z,102986.86
2019-02-21T01:56:54.295Z,102988.07
2019-02-21T01:59:57.474Z,102987.61
2019-02-21T02:03:00.670Z,102992.11
2019-02-21T02:06:03.864Z,102994.75
2019-02-21T02:09:09.491Z,102996.89
2019-02-21T02:12:12.624Z,102992.37
2019-02-21T02:15:15.791Z,102990.39
2019-02-21T02:18:19.010Z,102991.61
2019-02-21T02:21:22.186Z,102991.59
2019-02-21T02:24:25.284Z,102993.41
2019-02-21T02:27:28.484Z,102998.21
2019-02-21T02:30:31.696Z,102996.04
2019-02-21T02:33:34.987Z,102997.57
2019-02-21T02:36:38.181Z,103002.18
2019-02-21T02:39:41.510Z,103011.45
2019-02-21T02:42:44.680Z,103008.24
2019-02-21T02:45:47.953Z,103010.15
2019-02-21T02:48:51.140Z,103008.20
2019-02-21T02:51:54.342Z,103010.21
2019-02-21T02:54:57.527Z,103008.89
2019-02-21T02:58:00.832Z,103015.08
2019-02-21T03:01:04.145Z,103018.19
2019-02-21T03:04:07.339Z,103019.29
2019-02-21T03:07:10.516Z,103017.78
2019-02-21T03:10:14.411Z,103023.69
2019-02-21T03:13:17.534Z,103017.39
2019-02-21T03:16:20.628Z,103016.16
2019-02-21T03:19:24.022Z,103015.45
2019-02-21T03:22:27.223Z,103023.62
2019-02-21T03:25:30.459Z,103030.23
2019-02-21T03:28:33.614Z,103030.35
2019-02-21T03:31:53.399Z,103024.40
2019-02-21T03:34:39.972Z,103034.91
2019-02-21T03:37:43.181Z,103034.08
2019-02-21T03:40:46.259Z,103030.59
2019-02-21T03:43:49.386Z,103030.45
2019-02-21T03:46:52.703Z,103035.76
2019-02-21T03:49:55.880Z,103033.28
2019-02-21T03:52:59.048Z,103040.03
2019-02-21T03:56:02.253Z,103030.08
2019-02-21T03:59:05.636Z,103038.34
2019-02-21T04:02:08.843Z,103040.16
2019-02-21T04:05:12.043Z,103042.19
2019-02-21T04:08:15.321Z,103043.44
2019-02-21T04:11:18.432Z,103050.62
2019-02-21T04:14:22.672Z,103047.45
2019-02-21T04:17:25.932Z,103054.01
2019-02-21T04:20:29.036Z,103048.36
2019-02-21T04:23:32.243Z,103049.92
2019-02-21T04:26:35.415Z,103051.56
2019-02-21T04:29:38.604Z,103051.28
2019-02-21T04:32:41.818Z,103054.76
2019-02-21T04:35:45.102Z,103047.88
2019-02-21T04:38:48.200Z,103045.83
2019-02-21T04:41:51.401Z,103043.22
2019-02-21T04:44:54.591Z,103048.54
2019-02-21T04:47:57.759Z,103049.07
2019-02-21T04:51:00.987Z,103044.18
2019-02-21T04:54:04.167Z,103047.04
2019-02-21T04:57:07.371Z,103048.75
2019-02-21T05:00:11.540Z,103049.46
2019-02-21T05:03:14.673Z,103045.56
2019-02-21T05:06:17.853Z,103052.74
2019-02-21T05:09:21.087Z,103056.04
2019-02-21T05:12:24.191Z,103059.16
2019-02-21T05:15:27.423Z,103050.32
2019-02-21T05:18:30.519Z,103046.93
2019-02-21T05:21:33.622Z,103040.60
2019-02-21T05:24:36.825Z,103052.01
2019-02-21T05:27:44.101Z,103048.97
2019-02-21T05:30:47.327Z,103051.44
2019-02-21T05:33:57.542Z,103043.31
2019-02-21T05:37:04.811Z,103047.80
2019-02-21T05:40:13.354Z,103051.98
2019-02-21T05:43:22.727Z,103049.37
2019-02-21T05:46:31.965Z,103050.45
2019-02-21T05:49:42.304Z,103049.68
2019-02-21T05:52:49.566Z,103049.21
2019-02-21T05:56:02.239Z,103054.85
2019-02-21T05:59:12.419Z,103054.96
2019-02-21T06:02:20.981Z,103053.75
2019-02-21T06:05:29.242Z,103062.43
2019-02-21T06:08:37.869Z,103065.41
2019-02-21T06:12:51.231Z,103058.71
2019-02-21T06:16:01.422Z,103072.13
2019-02-21T06:21:16.223Z,103072.58
2019-02-21T06:25:22.435Z,103073.84
2019-02-21T06:28:30.621Z,103071.47
2019-02-21T06:31:33.818Z,103071.55
2019-02-21T06:34:36.975Z,103066.86
2019-02-21T06:37:40.188Z,103068.08
2019-02-21T06:40:43.391Z,103062.20
2019-02-21T06:43:46.675Z,103062.36
2019-02-21T06:46:49.885Z,103069.19
2019-02-21T06:49:53.155Z,103071.67
2019-02-21T06:52:56.356Z,103073.33
2019-02-21T06:55:59.551Z,103070.44
2019-02-21T06:59:02.841Z,103076.49
2019-02-21T07:02:06.042Z,103087.97
2019-02-21T07:05:09.266Z,103090.19
2019-02-21T07:08:12.524Z,103094.68
2019-02-21T07:11:15.741Z,103096.75
2019-02-21T07:14:18.908Z,103095.29
2019-02-21T07:17:22.027Z,103098.79
2019-02-21T07:20:25.250Z,103090.21
2019-02-21T07:23:32.525Z,103082.02
2019-02-21T07:26:31.631Z,103096.72
2019-02-21T07:29:34.904Z,103107.30
2019-02-21T07:32:38.203Z,103105.55
2019-02-21T07:35:41.479Z,103095.79
2019-02-21T07:38:44.691Z,103099.48
2019-02-21T07:41:49.975Z,103105.27
2019-02-21T07:44:51.110Z,103106.08
2019-02-21T07:47:54.461Z,103118.68
2019-02-21T07:50:58.275Z,103123.18
2019-02-21T07:54:01.580Z,103123.36
2019-02-21T07:57:04.801Z,103123.87
2019-02-21T08:00:09.103Z,103121.74
2019-02-21T08:03:12.397Z,103123.05
2019-02-21T08:06:15.588Z,103121.94
2019-02-21T08:09:19.026Z,103120.96
2019-02-21T08:12:23.261Z,103118.54
2019-02-21T08:15:27.542Z,103115.82
2019-02-21T08:18:28.383Z,103108.70
2019-02-21T08:21:31.574Z,103117.11
2019-02-21T08:24:34.789Z,103122.16
2019-02-21T08:27:37.936Z,103125.12
2019-02-21T08:30:41.139Z,103120.70
2019-02-21T08:33:58.056Z,103133.18
2019-02-21T08:36:52.543Z,103121.09
2019-02-21T08:39:55.768Z,103120.13
2019-02-21T08:42:58.859Z,103122.95
2019-02-21T08:46:02.019Z,103125.12
2019-02-21T08:49:05.225Z,103125.04
2019-02-21T08:52:08.306Z,103131.13
2019-02-21T08:55:11.496Z,103131.36
2019-02-21T08:58:14.687Z,103125.16
2019-02-21T09:01:17.795Z,103129.52
2019-02-21T09:04:27.368Z,103132.07
2019-02-21T09:07:24.186Z,103139.41
2019-02-21T09:10:27.835Z,103134.41
2019-02-21T09:13:30.574Z,103144.20
2019-02-21T09:16:33.665Z,103139.27
2019-02-21T09:19:36.987Z,103145.05
2019-02-21T09:22:40.060Z,103140.13
2019-02-21T09:25:43.247Z,103141.74
2019-02-21T09:28:46.442Z,103139.74
2019-02-21T09:31:49.642Z,103139.39
2019-02-21T09:34:52.933Z,103143.60
2019-02-21T09:37:56.027Z,103141.32
2019-02-21T09:40:59.405Z,103145.19
2019-02-21T09:44:02.617Z,103143.81
2019-02-21T09:47:05.916Z,103146.52
2019-02-21T09:50:09.221Z,103147.91
2019-02-21T09:53:12.407Z,103141.15
2019-02-21T09:56:15.596Z,103142.18
2019-02-21T09:59:18.703Z,103138.81
2019-02-21T10:02:23.215Z,103136.47
2019-02-21T10:05:26.124Z,103130.08
2019-02-21T10:08:29.372Z,103130.18
2019-02-21T10:11:32.593Z,103129.38
2019-02-21T10:14:35.889Z,103120.95
2019-02-21T10:17:39.100Z,103113.19
2019-02-21T10:20:42.399Z,103114.49
2019-02-21T10:23:45.572Z,103109.57
2019-02-21T10:26:48.691Z,103116.21
2019-02-21T10:29:51.882Z,103124.67
2019-02-21T10:32:55.072Z,103129.76
2019-02-21T10:36:00.426Z,103130.44
2019-02-21T10:39:01.455Z,103130.29
2019-02-21T10:42:04.678Z,103130.48
2019-02-21T10:45:10.517Z,103126.81
2019-02-21T10:48:13.836Z,103124.93
2019-02-21T10:51:17.031Z,103123.92
2019-02-21T10:54:20.179Z,103128.05
2019-02-21T10:57:23.395Z,103131.85
2019-02-21T11:00:27.160Z,103133.31
2019-02-21T11:03:30.381Z,103125.56
2019-02-21T11:06:33.583Z,103121.52
2019-02-21T11:09:36.885Z,103118.40
2019-02-21T11:12:40.088Z,103119.82
2019-02-21T11:15:43.372Z,103113.59
2019-02-21T11:18:46.556Z,103113.59
2019-02-21T11:21:49.765Z,103106.91
2019-02-21T11:24:52.932Z,103108.55
2019-02-21T11:27:56.044Z,103106.90
2019-02-21T11:30:59.397Z,103101.05
2019-02-21T11:34:02.550Z,103088.60
2019-02-21T11:37:05.732Z,103080.72
2019-02-21T11:40:09.977Z,103082.44
2019-02-21T11:43:13.148Z,103075.98
2019-02-21T11:46:16.353Z,103075.95
2019-02-21T11:49:19.535Z,103076.02
2019-02-21T11:52:22.811Z,103070.96
2019-02-21T11:55:26.029Z,103068.91
2019-02-21T11:58:29.316Z,103066.85
2019-02-21T12:01:32.500Z,103071.88
2019-02-21T12:04:35.750Z,103072.25
2019-02-21T12:07:39.633Z,103065.41
2019-02-21T12:10:43.080Z,103064.00
2019-02-21T12:13:46.219Z,103067.66
2019-02-21T12:16:49.470Z,103066.15
2019-02-21T12:19:52.597Z,103068.86
2019-02-21T12:22:55.784Z,103062.97
2019-02-21T12:25:59.014Z,103059.60
2019-02-21T12:29:02.211Z,103058.71
2019-02-21T12:32:05.425Z,103058.24
2019-02-21T12:35:08.600Z,103061.11
2019-02-21T12:38:11.789Z,103053.71
2019-02-21T12:41:15.008Z,103052.53
2019-02-21T12:44:18.284Z,103051.06
2019-02-21T12:47:21.459Z,103046.46
2019-02-21T12:50:24.666Z,103047.50
2019-02-21T12:53:28.297Z,103045.75
2019-02-21T12:56:31.059Z,103040.33
2019-02-21T12:59:34.264Z,103035.42
2019-02-21T13:02:38.855Z,103029.26
2019-02-21T13:05:44.552Z,103021.90
2019-02-21T13:08:45.280Z,103017.79
2019-02-21T13:11:48.568Z,103012.19
2019-02-21T13:14:51.688Z,103005.83
2019-02-21T13:17:54.943Z,103002.65
2019-02-21T13:20:58.175Z,102998.02
2019-02-21T13:24:01.338Z,102997.00
2019-02-21T13:27:04.444Z,102997.48
2019-02-21T13:30:10.195Z,102992.24
2019-02-21T13:33:14.297Z,102993.82
2019-02-21T13:36:17.521Z,102988.25
2019-02-21T13:39:20.641Z,102989.52
2019-02-21T13:42:23.866Z,102983.54
2019-02-21T13:45:27.069Z,102982.61
2019-02-21T13:48:30.203Z,102965.48
2019-02-21T13:51:33.463Z,102964.90
2019-02-21T13:54:36.653Z,102969.30
2019-02-21T13:57:39.871Z,102976.20
2019-02-21T14:00:43.043Z,102982.21
2019-02-21T14:03:46.277Z,102986.87
2019-02-21T14:06:49.366Z,102993.07
2019-02-21T14:09:52.526Z,102992.77
2019-02-21T14:12:55.607Z,102990.11
2019-02-21T14:15:58.776Z,102994.38
2019-02-21T14:19:01.909Z,102996.39
2019-02-21T14:22:05.102Z,102996.51
2019-02-21T14:25:08.629Z,103007.54
2019-02-21T14:28:11.804Z,103006.95
2019-02-21T14:31:14.988Z,103002.70
2019-02-21T14:34:18.091Z,102999.06
2019-02-21T14:37:21.314Z,103002.34
2019-02-21T14:40:24.487Z,103006.74
2019-02-21T14:43:27.753Z,102998.29
2019-02-21T14:46:30.873Z,102995.45
2019-02-21T14:49:34.081Z,102993.01
2019-02-21T14:52:37.259Z,102994.34
2019-02-21T14:55:40.380Z,102986.12
2019-02-21T14:58:43.541Z,102987.07
2019-02-21T15:01:46.745Z,102984.23
2019-02-21T15:04:50.129Z,102979.16
2019-02-21T15:07:53.346Z,102986.19
2019-02-21T15:10:56.517Z,102978.12
2019-02-21T15:13:59.607Z,102967.39
2019-02-21T15:17:03.858Z,102974.09
2019-02-21T15:20:08.167Z,102977.31
2019-02-21T15:23:11.370Z,102972.49
2019-02-21T15:26:14.921Z,102975.46
2019-02-21T15:29:18.775Z,102986.87
2019-02-21T15:32:22.528Z,102991.53
2019-02-21T15:35:25.681Z,102999.41
2019-02-21T15:38:28.875Z,103003.98
2019-02-21T15:41:31.994Z,103003.99
2019-02-21T15:44:35.135Z,103005.70
2019-02-21T15:47:38.228Z,103003.94
2019-02-21T15:50:41.448Z,103010.42
2019-02-21T15:53:44.735Z,103008.95
2019-02-21T15:56:47.924Z,103006.26
2019-02-21T15:59:51.120Z,103003.80
2019-02-21T16:02:54.312Z,102997.36
2019-02-21T16:05:57.612Z,102992.89
2019-02-21T16:09:00.710Z,103001.12
2019-02-21T16:12:05.455Z,103005.06
2019-02-21T16:15:08.219Z,103008.24
2019-02-21T16:18:13.795Z,103013.52
2019-02-21T16:21:14.608Z,103010.14
2019-02-21T16:24:17.707Z,103010.21
2019-02-21T16:27:20.895Z,103009.66
2019-02-21T16:30:24.356Z,103001.46
2019-02-21T16:33:27.555Z,103003.96
2019-02-21T16:36:30.852Z,103009.39
2019-02-21T16:39:34.012Z,103012.51
2019-02-21T16:42:39.172Z,103007.02
2019-02-21T16:45:46.386Z,103020.66
2019-02-21T16:48:45.611Z,103019.72
2019-02-21T16:51:48.784Z,103027.34
2019-02-21T16:54:53.229Z,103021.71
2019-02-21T16:57:56.466Z,103021.81
2019-02-21T17:00:59.713Z,103014.79
2019-02-21T17:04:02.931Z,103017.03
2019-02-21T17:07:13.500Z,103013.84
2019-02-21T17:10:09.566Z,103022.70
2019-02-21T17:13:12.670Z,103031.40
2019-02-21T17:16:15.887Z,103040.90
2019-02-21T17:19:19.082Z,103047.05
2019-02-21T17:22:22.314Z,103053.85
2019-02-21T17:25:26.727Z,103058.20
2019-02-21T17:28:30.024Z,103066.33
2019-02-21T17:31:33.251Z,103072.87
2019-02-21T17:34:36.479Z,103081.56
2019-02-21T17:37:39.611Z,103085.15
2019-02-21T17:40:42.803Z,103084.09
2019-02-21T17:43:47.872Z,103089.05
2019-02-21T17:46:49.218Z,103087.32
2019-02-21T17:49:52.392Z,103096.31
2019-02-21T17:52:55.592Z,103090.68
2019-02-21T17:55:58.871Z,103089.07
2019-02-21T17:59:02.088Z,103093.87
2019-02-21T18:02:05.266Z,103092.80
2019-02-21T18:05:09.087Z,103098.96
2019-02-21T18:08:12.259Z,103099.24
2019-02-21T18:11:15.470Z,103102.25
2019-02-21T18:14:18.609Z,103101.24
2019-02-21T18:17:21.770Z,103105.07
2019-02-21T18:20:24.943Z,103106.34
2019-02-21T18:23:28.058Z,103106.96
2019-02-21T18:26:32.043Z,103108.38
2019-02-21T18:29:34.556Z,103113.12
2019-02-21T18:32:37.773Z,103119.75
2019-02-21T18:35:40.985Z,103127.09
2019-02-21T18:38:44.206Z,103126.44
2019-02-21T18:41:47.514Z,103121.36
2019-02-21T18:44:50.716Z,103130.94
2019-02-21T18:47:53.936Z,103129.59
2019-02-21T18:50:57.085Z,103130.33
2019-02-21T18:54:00.285Z,103121.29
2019-02-21T18:57:03.479Z,103128.23
2019-02-21T19:00:08.415Z,103115.19
2019-02-21T19:03:11.599Z,103116.82
2019-02-21T19:06:14.834Z,103120.25
2019-02-21T19:09:17.980Z,103117.21
2019-02-21T19:12:21.089Z,103117.47
2019-02-21T19:15:24.337Z,103123.04
2019-02-21T19:18:27.443Z,103118.52
2019-02-21T19:21:30.571Z,103118.56
2019-02-21T19:24:33.888Z,103114.96
2019-02-21T19:27:37.720Z,103114.63
2019-02-21T19:30:43.892Z,103125.36
2019-02-21T19:33:47.068Z,103126.00
2019-02-21T19:36:50.164Z,103127.83
2019-02-21T19:39:53.386Z,103133.57
2019-02-21T19:42:56.515Z,103125.61
2019-02-21T19:45:59.746Z,103127.11
2019-02-21T19:49:02.927Z,103132.38
2019-02-21T19:52:06.157Z,103134.77
2019-02-21T19:55:09.301Z,103138.67
2019-02-21T19:58:12.499Z,103142.65
2019-02-21T20:01:15.635Z,103145.84
2019-02-21T20:04:18.816Z,103151.11
2019-02-21T20:07:21.980Z,103149.57
2019-02-21T20:10:25.167Z,103151.11
2019-02-21T20:13:28.372Z,103159.12
2019-02-21T20:16:31.565Z,103152.44
2019-02-21T20:19:34.787Z,103154.34
2019-02-21T20:22:37.964Z,103157.68
2019-02-21T20:25:41.153Z,103159.85
2019-02-21T20:28:44.307Z,103167.03
2019-02-21T20:31:47.604Z,103177.84
2019-02-21T20:34:50.816Z,103186.23
2019-02-21T20:37:53.916Z,103182.99
2019-02-21T20:40:57.116Z,103180.32
2019-02-21T20:44:01.320Z,103181.41
2019-02-21T20:47:04.443Z,103183.81
2019-02-21T20:50:07.682Z,103187.87
2019-02-21T20:53:10.949Z,103191.88
2019-02-21T20:56:14.203Z,103187.20
2019-02-21T20:59:17.522Z,103191.69
2019-02-21T21:02:20.613Z,103190.47
2019-02-21T21:05:23.830Z,103188.22
2019-02-21T21:08:27.126Z,103192.60
2019-02-21T21:11:30.275Z,103194.16
2019-02-21T21:14:33.496Z,103200.84
2019-02-21T21:17:36.873Z,103204.28
2019-02-21T21:20:40.103Z,103211.80
2019-02-21T21:23:43.346Z,103220.00
2019-02-21T21:26:46.511Z,103215.48
2019-02-21T21:29:49.647Z,103219.90
2019-02-21T21:32:52.792Z,103216.61
2019-02-21T21:35:55.939Z,103219.51
2019-02-21T21:38:59.087Z,103226.11
2019-02-21T21:42:02.339Z,103230.83
2019-02-21T21:45:07.495Z,103232.04
2019-02-21T21:48:11.103Z,103230.31
2019-02-21T21:51:14.783Z,103231.17
2019-02-21T21:54:18.184Z,103240.01
2019-02-21T21:57:21.474Z,103237.35
2019-02-21T22:00:24.697Z,103246.21
2019-02-21T22:03:27.944Z,103255.16
2019-02-21T22:06:31.058Z,103252.99
2019-02-21T22:09:34.422Z,103259.39
2019-02-21T22:12:37.680Z,103253.64
2019-02-21T22:15:41.675Z,103254.04
2019-02-21T22:18:44.936Z,103256.04
2019-02-21T22:21:48.083Z,103257.53
2019-02-21T22:24:52.063Z,103256.00
2019-02-21T22:27:55.270Z,103256.67
2019-02-21T22:30:58.491Z,103260.77
2019-02-21T22:34:01.756Z,103260.50
2019-02-21T22:37:05.754Z,103259.44
2019-02-21T22:40:10.308Z,103266.22
2019-02-21T22:43:13.516Z,103265.63
2019-02-21T22:46:16.635Z,103269.61
2019-02-21T22:49:19.783Z,103269.39
2019-02-21T22:52:23.206Z,103274.01
2019-02-21T22:55:26.621Z,103269.96
2019-02-21T22:58:29.794Z,103276.86
2019-02-21T23:01:37.680Z,103280.25
2019-02-21T23:09:27.406Z,103276.48
2019-02-21T23:12:23.415Z,103277.97
2019-02-21T23:15:26.630Z,103277.92
2019-02-21T23:18:29.763Z,103282.69
2019-02-21T23:21:32.897Z,103284.21
2019-02-21T23:24:37.015Z,103293.26
2019-02-21T23:27:40.106Z,103293.30
2019-02-21T23:30:43.315Z,103284.75
2019-02-21T23:33:49.491Z,103292.09
2019-02-21T23:36:52.662Z,103287.43
2019-02-21T23:39:55.858Z,103290.26
2019-02-21T23:42:58.948Z,103284.97
2019-02-21T23:46:02.240Z,103280.43
2019-02-21T23:49:05.551Z,103290.97
2019-02-21T23:52:08.763Z,103278.97
2019-02-21T23:55:11.922Z,103279.18
2019-02-21T23:58:15.131Z,103275.19
